createdAt,value
2022-09-06T00:02:15.857Z,80.10
2022-09-06T00:04:42.510Z,80.10
2022-09-06T00:07:09.134Z,80.10
2022-09-06T00:09:35.765Z,80.20
2022-09-06T00:12:02.531Z,80.90
2022-09-06T00:14:29.152Z,80.80
2022-09-06T00:16:55.795Z,82.80
2022-09-06T00:19:22.794Z,81.20
2022-09-06T00:21:49.391Z,81.00
2022-09-06T00:24:16.305Z,82.50
2022-09-06T00:26:42.956Z,81.40
2022-09-06T00:29:09.551Z,81.10
2022-09-06T00:31:36.255Z,82.50
2022-09-06T00:34:03.047Z,82.70
2022-09-06T00:36:29.732Z,82.20
2022-09-06T00:38:56.713Z,81.50
2022-09-06T00:41:23.365Z,80.40
2022-09-06T00:43:50.107Z,80.70
2022-09-06T00:46:23.738Z,81.30
2022-09-06T00:48:54.856Z,81.50
2022-09-06T00:51:24.709Z,82.80
2022-09-06T00:53:52.175Z,83.40
2022-09-06T00:56:19.048Z,82.10
2022-09-06T00:58:46.801Z,82.00
2022-09-06T01:01:13.579Z,82.00
2022-09-06T01:03:40.589Z,81.70
2022-09-06T01:06:21.862Z,83.10
2022-09-06T01:09:21.123Z,83.40
2022-09-06T01:12:00.712Z,82.20
2022-09-06T01:14:52.590Z,84.20
2022-09-06T01:18:01.882Z,85.30
2022-09-06T01:20:36.099Z,86.10
2022-09-06T01:23:11.546Z,87.10
2022-09-06T01:25:53.282Z,86.20
2022-09-06T01:28:40.130Z,87.00
2022-09-06T01:31:35.294Z,86.80
2022-09-06T01:34:07.803Z,86.60
2022-09-06T01:37:06.322Z,89.80
2022-09-06T01:39:33.508Z,88.70
2022-09-06T01:42:23.716Z,89.20
2022-09-06T01:44:58.688Z,87.30
2022-09-06T01:47:37.278Z,87.60
2022-09-06T01:50:12.916Z,87.70
2022-09-06T01:53:04.848Z,88.30
2022-09-06T01:55:35.615Z,87.30
2022-09-06T01:58:15.695Z,88.40
2022-09-06T02:00:53.947Z,89.50
2022-09-06T02:04:02.363Z,88.20
2022-09-06T02:06:38.927Z,89.90
2022-09-06T02:09:17.116Z,90.50
2022-09-06T02:11:50.641Z,90.10
2022-09-06T02:14:24.214Z,90.40
2022-09-06T02:16:53.777Z,90.20
2022-09-06T02:19:27.654Z,90.20
2022-09-06T02:21:57.219Z,90.70
2022-09-06T02:24:30.557Z,91.20
2022-09-06T02:26:57.598Z,90.90
2022-09-06T02:29:24.433Z,90.50
2022-09-06T02:31:57.333Z,90.80
2022-09-06T02:34:23.963Z,90.40
2022-09-06T02:36:50.802Z,90.10
2022-09-06T02:39:17.457Z,90.10
2022-09-06T02:41:47.929Z,90.20
2022-09-06T02:44:14.974Z,89.70
2022-09-06T02:46:41.701Z,89.00
2022-09-06T02:49:08.511Z,89.40
2022-09-06T02:51:39.227Z,90.10
2022-09-06T02:54:06.818Z,89.80
2022-09-06T02:56:33.884Z,90.20
2022-09-06T02:59:00.807Z,90.60
2022-09-06T03:01:27.637Z,90.40
2022-09-06T03:03:54.415Z,89.00
2022-09-06T03:06:21.082Z,89.50
2022-09-06T03:08:47.746Z,90.30
2022-09-06T03:11:14.664Z,90.10
2022-09-06T03:13:41.482Z,90.20
2022-09-06T03:16:08.152Z,90.40
2022-09-06T03:18:34.927Z,90.40
2022-09-06T03:21:01.729Z,90.50
2022-09-06T03:23:29.502Z,90.60
2022-09-06T03:25:56.723Z,90.50
2022-09-06T03:28:23.696Z,91.00
2022-09-06T03:30:51.922Z,90.90
2022-09-06T03:33:20.037Z,90.60
2022-09-06T03:35:59.605Z,91.50
2022-09-06T03:38:28.406Z,91.10
2022-09-06T03:40:55.482Z,90.80
2022-09-06T03:43:24.338Z,90.70
2022-09-06T03:45:53.609Z,90.60
2022-09-06T03:48:22.079Z,90.60
2022-09-06T03:50:51.290Z,90.70
2022-09-06T03:53:18.464Z,91.50
2022-09-06T03:55:50.106Z,92.00
2022-09-06T03:58:18.997Z,91.10
2022-09-06T04:00:46.351Z,91.60
2022-09-06T04:03:13.453Z,91.50
2022-09-06T04:05:40.387Z,91.50
2022-09-06T04:08:07.075Z,92.00
2022-09-06T04:10:33.982Z,91.10
2022-09-06T04:13:00.822Z,91.80
2022-09-06T04:15:27.453Z,91.70
2022-09-06T04:17:54.056Z,91.40
2022-09-06T04:20:20.688Z,91.80
2022-09-06T04:22:47.306Z,91.40
2022-09-06T04:25:13.963Z,91.40
2022-09-06T04:27:40.799Z,92.10
2022-09-06T04:30:08.346Z,91.30
2022-09-06T04:32:35.026Z,91.30
2022-09-06T04:35:01.872Z,91.40
2022-09-06T04:37:28.569Z,91.60
2022-09-06T04:39:55.556Z,91.70
2022-09-06T04:42:22.384Z,91.80
2022-09-06T04:44:49.013Z,91.70
2022-09-06T04:47:18.086Z,91.80
2022-09-06T04:49:45.497Z,92.00
2022-09-06T04:52:12.387Z,92.10
2022-09-06T04:54:39.319Z,92.00
2022-09-06T04:57:06.223Z,91.90
2022-09-06T04:59:32.890Z,92.20
2022-09-06T05:01:59.784Z,92.20
2022-09-06T05:04:26.859Z,91.60
2022-09-06T05:07:02.106Z,92.50
2022-09-06T05:09:29.025Z,92.00
2022-09-06T05:11:56.062Z,91.60
2022-09-06T05:14:22.765Z,91.80
2022-09-06T05:16:50.361Z,92.60
2022-09-06T05:19:17.855Z,91.80
2022-09-06T05:21:44.806Z,91.90
2022-09-06T05:24:11.755Z,92.10
2022-09-06T05:26:38.437Z,91.80
2022-09-06T05:29:05.139Z,92.30
2022-09-06T05:31:34.283Z,92.30
2022-09-06T05:34:01.044Z,91.90
2022-09-06T05:36:29.414Z,92.50
2022-09-06T05:38:57.386Z,92.20
2022-09-06T05:41:24.777Z,91.90
2022-09-06T05:43:51.478Z,92.20
2022-09-06T05:46:18.445Z,93.10
2022-09-06T05:48:52.422Z,92.50
2022-09-06T05:51:19.063Z,92.60
2022-09-06T05:53:46.090Z,92.30
2022-09-06T05:56:14.519Z,92.80
2022-09-06T05:58:41.200Z,93.10
2022-09-06T06:01:17.292Z,92.40
2022-09-06T06:03:51.125Z,92.30
2022-09-06T06:06:18.318Z,92.90
2022-09-06T06:08:45.193Z,93.10
2022-09-06T06:11:12.178Z,93.20
2022-09-06T06:13:39.715Z,93.20
2022-09-06T06:16:08.002Z,92.80
2022-09-06T06:18:35.019Z,93.00
2022-09-06T06:21:15.543Z,93.20
2022-09-06T06:23:44.860Z,93.40
2022-09-06T06:26:12.564Z,93.80
2022-09-06T06:28:40.206Z,93.90
2022-09-06T06:31:09.349Z,94.00
2022-09-06T06:33:38.873Z,93.80
2022-09-06T06:36:08.223Z,93.70
2022-09-06T06:38:37.465Z,93.80
2022-09-06T06:41:07.045Z,93.70
2022-09-06T06:43:38.052Z,93.50
2022-09-06T06:46:14.879Z,93.50
2022-09-06T06:48:43.834Z,93.30
2022-09-06T06:51:13.513Z,93.10
2022-09-06T06:53:40.558Z,93.00
2022-09-06T06:56:23.556Z,93.10
2022-09-06T06:58:52.749Z,93.10
2022-09-06T07:01:21.317Z,93.10
2022-09-06T07:03:49.096Z,92.70
2022-09-06T07:06:16.375Z,92.60
2022-09-06T07:08:43.374Z,92.60
2022-09-06T07:11:11.927Z,92.20
2022-09-06T07:13:39.097Z,91.50
2022-09-06T07:16:20.570Z,91.20
2022-09-06T07:18:50.387Z,91.40
2022-09-06T07:21:41.705Z,91.60
2022-09-06T07:24:09.407Z,90.70
2022-09-06T07:26:38.230Z,92.00
2022-09-06T07:29:06.387Z,91.00
2022-09-06T07:34:20.836Z,90.90
2022-09-06T07:36:48.237Z,90.00
2022-09-06T07:39:15.001Z,88.30
2022-09-06T07:41:42.971Z,89.10
2022-09-06T07:44:10.147Z,89.40
2022-09-06T07:46:37.327Z,87.60
2022-09-06T07:49:05.467Z,87.50
2022-09-06T07:51:32.457Z,89.80
2022-09-06T07:54:19.260Z,87.50
2022-09-06T07:56:45.854Z,85.80
2022-09-06T07:59:12.618Z,85.40
2022-09-06T08:01:39.950Z,85.10
2022-09-06T08:04:08.633Z,84.60
2022-09-06T08:09:24.182Z,86.00
2022-09-06T08:11:52.758Z,83.00
2022-09-06T08:14:20.378Z,83.80
2022-09-06T08:16:47.455Z,83.80
2022-09-06T08:19:14.163Z,81.30
2022-09-06T08:21:40.827Z,81.60
2022-09-06T08:24:11.190Z,81.20
2022-09-06T08:26:40.463Z,80.40
2022-09-06T08:29:09.012Z,80.70
2022-09-06T08:31:38.751Z,79.40
2022-09-06T08:34:06.121Z,79.60
2022-09-06T08:36:34.103Z,78.00
2022-09-06T08:39:03.598Z,78.00
2022-09-06T08:42:00.282Z,78.20
2022-09-06T08:47:22.733Z,75.70
2022-09-06T08:49:56.864Z,75.60
2022-09-06T08:52:45.296Z,74.10
2022-09-06T08:55:34.041Z,74.50
2022-09-06T08:58:29.903Z,75.30
2022-09-06T09:01:07.517Z,74.10
2022-09-06T09:03:36.910Z,74.00
2022-09-06T09:06:06.689Z,73.50
2022-09-06T09:08:47.886Z,73.00
2022-09-06T09:11:19.945Z,73.30
2022-09-06T09:14:16.108Z,72.50
2022-09-06T09:16:43.485Z,71.70
2022-09-06T09:19:10.391Z,70.60
2022-09-06T09:21:39.984Z,70.70
2022-09-06T09:24:11.598Z,70.20
2022-09-06T09:26:55.436Z,69.50
2022-09-06T09:29:27.484Z,70.60
2022-09-06T09:31:56.267Z,70.10
2022-09-06T09:34:37.742Z,69.00
2022-09-06T09:40:29.372Z,68.10
2022-09-06T09:43:09.064Z,69.10
2022-09-06T09:45:35.715Z,66.50
2022-09-06T09:48:20.212Z,67.60
2022-09-06T09:50:47.266Z,66.00
2022-09-06T09:53:16.581Z,66.00
2022-09-06T09:55:44.103Z,66.80
2022-09-06T09:58:27.626Z,66.50
2022-09-06T10:01:31.243Z,66.10
2022-09-06T10:09:36.573Z,65.40
2022-09-06T10:12:03.582Z,65.00
2022-09-06T10:14:33.647Z,64.50
2022-09-06T10:17:00.795Z,64.60
2022-09-06T10:19:41.017Z,65.20
2022-09-06T10:22:20.114Z,64.10
2022-09-06T10:25:08.789Z,63.70
2022-09-06T10:27:39.945Z,63.30
2022-09-06T10:30:14.609Z,63.20
2022-09-06T10:33:21.775Z,61.80
2022-09-06T10:35:48.734Z,61.80
2022-09-06T10:38:35.711Z,61.70
2022-09-06T10:41:43.248Z,61.60
2022-09-06T10:44:30.927Z,61.90
2022-09-06T10:47:10.980Z,61.30
2022-09-06T10:49:38.944Z,61.60
2022-09-06T10:52:09.350Z,62.10
2022-09-06T10:54:40.398Z,62.00
2022-09-06T11:00:13.570Z,60.90
2022-09-06T11:05:54.238Z,59.70
2022-09-06T11:08:53.415Z,60.20
2022-09-06T11:11:59.812Z,60.00
2022-09-06T11:14:28.150Z,59.30
2022-09-06T11:17:00.788Z,59.40
2022-09-06T11:19:44.205Z,59.90
2022-09-06T11:22:33.741Z,59.40
2022-09-06T11:25:19.239Z,58.50
2022-09-06T11:27:51.692Z,60.00
2022-09-06T11:30:21.151Z,58.70
2022-09-06T11:33:01.698Z,59.70
2022-09-06T11:35:33.614Z,58.40
2022-09-06T11:38:10.474Z,58.80
2022-09-06T11:40:41.193Z,58.70
2022-09-06T11:43:10.059Z,57.10
2022-09-06T11:45:51.265Z,57.10
2022-09-06T11:48:24.002Z,57.00
2022-09-06T11:50:53.593Z,57.40
2022-09-06T11:53:24.873Z,56.70
2022-09-06T11:56:00.709Z,57.50
2022-09-06T11:58:43.882Z,56.60
2022-09-06T12:01:13.527Z,56.40
2022-09-06T12:06:35.573Z,56.70
2022-09-06T12:09:22.668Z,57.30
2022-09-06T12:11:49.408Z,56.90
2022-09-06T12:14:29.916Z,56.60
2022-09-06T12:17:00.183Z,57.40
2022-09-06T12:19:45.570Z,57.30
2022-09-06T12:22:31.224Z,55.50
2022-09-06T12:25:05.267Z,56.80
2022-09-06T12:27:39.261Z,55.70
2022-09-06T12:30:11.334Z,56.00
2022-09-06T12:32:45.560Z,55.70
2022-09-06T12:38:17.157Z,54.60
2022-09-06T12:40:51.548Z,53.50
2022-09-06T12:43:20.070Z,52.70
2022-09-06T12:45:50.584Z,52.60
2022-09-06T12:48:35.384Z,52.50
2022-09-06T12:51:07.730Z,52.20
2022-09-06T12:53:34.921Z,52.20
2022-09-06T12:56:12.128Z,51.50
2022-09-06T12:58:39.564Z,51.60
2022-09-06T13:01:13.716Z,51.80
2022-09-06T13:03:45.713Z,50.80
2022-09-06T13:06:22.236Z,52.40
2022-09-06T13:08:58.102Z,51.00
2022-09-06T13:11:31.690Z,50.30
2022-09-06T13:13:59.195Z,50.40
2022-09-06T13:16:43.415Z,49.30
2022-09-06T13:19:29.777Z,48.70
2022-09-06T13:22:00.354Z,42.60
2022-09-06T13:24:47.129Z,43.00
2022-09-06T13:27:37.638Z,43.60
2022-09-06T13:30:09.585Z,43.00
2022-09-06T13:32:45.313Z,42.60
2022-09-06T13:35:23.770Z,43.20
2022-09-06T13:37:50.574Z,41.60
2022-09-06T13:40:53.841Z,42.50
2022-09-06T13:43:24.838Z,42.90
2022-09-06T13:46:06.361Z,42.70
2022-09-06T13:48:33.854Z,42.60
2022-09-06T13:51:00.958Z,42.10
2022-09-06T13:53:27.628Z,41.50
2022-09-06T13:55:54.501Z,42.00
2022-09-06T13:58:21.400Z,41.60
2022-09-06T14:00:48.077Z,41.50
2022-09-06T14:03:24.810Z,41.90
2022-09-06T14:05:51.764Z,42.20
2022-09-06T14:08:18.594Z,41.20
2022-09-06T14:10:47.867Z,40.80
2022-09-06T14:13:18.404Z,40.10
2022-09-06T14:15:46.948Z,37.90
2022-09-06T14:18:14.664Z,37.70
2022-09-06T14:20:42.145Z,37.50
2022-09-06T14:23:09.288Z,39.00
2022-09-06T14:25:38.071Z,39.80
2022-09-06T14:28:05.073Z,39.80
2022-09-06T14:30:32.166Z,40.50
2022-09-06T14:32:59.004Z,41.20
2022-09-06T14:35:25.871Z,41.40
2022-09-06T14:37:52.612Z,40.50
2022-09-06T14:40:19.428Z,40.10
2022-09-06T14:42:50.276Z,40.80
2022-09-06T14:45:17.944Z,39.80
2022-09-06T14:47:44.721Z,39.50
2022-09-06T14:50:11.643Z,39.00
2022-09-06T14:52:38.272Z,39.80
2022-09-06T14:55:05.482Z,39.40
2022-09-06T14:57:32.530Z,39.90
2022-09-06T15:00:00.634Z,39.40
2022-09-06T15:02:29.037Z,40.00
2022-09-06T15:04:55.767Z,40.00
2022-09-06T15:07:22.537Z,40.10
2022-09-06T15:09:51.026Z,40.40
2022-09-06T15:12:18.089Z,40.90
2022-09-06T15:14:45.149Z,40.70
2022-09-06T15:17:12.147Z,40.80
2022-09-06T15:19:38.866Z,40.80
2022-09-06T15:22:06.257Z,40.90
2022-09-06T15:24:34.022Z,40.80
2022-09-06T15:27:02.122Z,41.00
2022-09-06T15:29:28.943Z,41.80
2022-09-06T15:31:55.839Z,42.60
2022-09-06T15:34:26.849Z,42.60
2022-09-06T15:36:54.790Z,42.50
2022-09-06T15:39:21.657Z,42.60
2022-09-06T15:41:50.014Z,42.80
2022-09-06T15:44:18.908Z,42.90
2022-09-06T15:46:50.356Z,43.70
2022-09-06T15:49:27.502Z,44.00
2022-09-06T15:52:00.843Z,44.40
2022-09-06T15:54:47.120Z,44.70
2022-09-06T15:57:16.348Z,44.10
2022-09-06T15:59:43.157Z,44.70
2022-09-06T16:02:10.215Z,44.40
2022-09-06T16:04:37.132Z,44.50
2022-09-06T16:07:04.091Z,44.10
2022-09-06T16:09:31.784Z,45.90
2022-09-06T16:11:58.620Z,45.20
2022-09-06T16:14:25.654Z,45.50
2022-09-06T16:16:53.889Z,45.60
2022-09-06T16:19:20.715Z,45.50
2022-09-06T16:21:47.501Z,45.10
2022-09-06T16:24:14.221Z,45.90
2022-09-06T16:26:43.474Z,45.60
2022-09-06T16:29:11.923Z,46.00
2022-09-06T16:31:40.499Z,46.60
2022-09-06T16:34:09.019Z,46.50
2022-09-06T16:36:36.101Z,46.60
2022-09-06T16:39:03.753Z,47.30
2022-09-06T16:41:39.418Z,47.40
2022-09-06T16:44:08.104Z,48.10
2022-09-06T16:46:35.026Z,47.20
2022-09-06T16:49:03.436Z,47.60
2022-09-06T16:51:31.466Z,48.00
2022-09-06T16:53:59.348Z,48.30
2022-09-06T16:56:29.549Z,48.50
2022-09-06T16:58:58.952Z,48.70
2022-09-06T17:01:27.438Z,49.10
2022-09-06T17:03:54.603Z,49.90
2022-09-06T17:06:22.973Z,50.10
2022-09-06T17:08:51.035Z,50.00
2022-09-06T17:11:20.346Z,49.90
2022-09-06T17:13:50.156Z,50.80
2022-09-06T17:16:37.107Z,50.70
2022-09-06T17:19:04.933Z,50.80
2022-09-06T17:21:32.323Z,51.20
2022-09-06T17:24:05.460Z,52.30
2022-09-06T17:26:35.093Z,51.70
2022-09-06T17:29:02.580Z,51.50
2022-09-06T17:31:29.884Z,53.70
2022-09-06T17:33:56.841Z,52.40
2022-09-06T17:36:25.825Z,51.80
2022-09-06T17:38:59.139Z,53.50
2022-09-06T17:41:30.059Z,52.90
2022-09-06T17:43:58.668Z,53.60
2022-09-06T17:46:28.912Z,54.80
2022-09-06T17:48:56.661Z,56.20
2022-09-06T17:51:24.620Z,57.00
2022-09-06T17:53:52.683Z,57.50
2022-09-06T17:56:20.243Z,57.70
2022-09-06T17:59:15.944Z,57.40
2022-09-06T18:01:45.430Z,57.20
2022-09-06T18:04:13.416Z,58.30
2022-09-06T18:06:42.412Z,58.70
2022-09-06T18:09:15.513Z,58.90
2022-09-06T18:11:45.723Z,58.90
2022-09-06T18:14:16.272Z,59.30
2022-09-06T18:16:47.375Z,59.80
2022-09-06T18:19:15.357Z,60.50
2022-09-06T18:21:42.413Z,60.90
2022-09-06T18:24:10.274Z,61.40
2022-09-06T18:26:38.556Z,62.20
2022-09-06T18:29:11.761Z,63.00
2022-09-06T18:31:39.713Z,63.80
2022-09-06T18:34:07.973Z,64.50
2022-09-06T18:36:34.984Z,64.10
2022-09-06T18:39:04.099Z,62.80
2022-09-06T18:41:53.304Z,62.90
2022-09-06T18:44:20.456Z,62.90
2022-09-06T18:46:48.414Z,62.50
2022-09-06T18:49:15.966Z,63.80
2022-09-06T18:51:44.035Z,63.70
2022-09-06T18:54:11.190Z,64.10
2022-09-06T18:56:38.699Z,62.80
2022-09-06T18:59:05.796Z,63.00
2022-09-06T19:01:34.862Z,60.70
2022-09-06T19:04:02.976Z,62.00
2022-09-06T19:06:31.649Z,63.70
2022-09-06T19:09:00.154Z,64.20
2022-09-06T19:11:28.214Z,64.80
2022-09-06T19:13:56.575Z,62.90
2022-09-06T19:16:25.427Z,63.00
2022-09-06T19:18:56.104Z,63.60
2022-09-06T19:21:25.670Z,64.10
2022-09-06T19:24:01.557Z,64.00
2022-09-06T19:26:34.241Z,63.30
2022-09-06T19:29:04.058Z,62.00
2022-09-06T19:31:37.394Z,62.40
2022-09-06T19:34:04.622Z,63.00
2022-09-06T19:36:31.978Z,63.40
2022-09-06T19:39:07.695Z,63.90
2022-09-06T19:41:38.122Z,63.50
2022-09-06T19:44:07.754Z,63.30
2022-09-06T19:46:35.270Z,63.30
2022-09-06T19:49:02.557Z,63.00
2022-09-06T19:51:29.792Z,62.60
2022-09-06T19:53:58.280Z,62.30
2022-09-06T19:56:27.786Z,62.80
2022-09-06T19:58:56.470Z,61.80
2022-09-06T20:01:25.565Z,61.80
2022-09-06T20:03:53.046Z,61.80
2022-09-06T20:06:20.076Z,62.00
2022-09-06T20:08:50.904Z,62.60
2022-09-06T20:11:18.371Z,63.00
2022-09-06T20:13:45.716Z,62.90
2022-09-06T20:16:13.444Z,62.50
2022-09-06T20:18:40.523Z,62.60
2022-09-06T20:21:08.198Z,62.80
2022-09-06T20:23:35.968Z,62.60
2022-09-06T20:26:15.710Z,63.10
2022-09-06T20:28:44.205Z,63.30
2022-09-06T20:31:20.702Z,63.10
2022-09-06T20:33:49.871Z,63.50
2022-09-06T20:36:17.726Z,63.50
2022-09-06T20:38:46.323Z,64.00
2022-09-06T20:41:15.874Z,63.80
2022-09-06T20:43:42.604Z,63.50
2022-09-06T20:46:15.032Z,64.10
2022-09-06T20:48:44.936Z,64.10
2022-09-06T20:51:19.211Z,64.40
2022-09-06T20:53:53.372Z,64.50
2022-09-06T20:56:21.794Z,64.70
2022-09-06T20:58:50.744Z,64.90
2022-09-06T21:01:22.381Z,64.90
2022-09-06T21:03:54.617Z,65.00
2022-09-06T21:06:23.227Z,65.40
2022-09-06T21:08:50.754Z,65.30
2022-09-06T21:11:18.127Z,65.30
2022-09-06T21:13:52.003Z,65.50
2022-09-06T21:16:23.964Z,65.60
2022-09-06T21:18:53.076Z,65.70
2022-09-06T21:21:20.022Z,65.70
2022-09-06T21:23:46.674Z,65.80
2022-09-06T21:26:15.934Z,66.30
2022-09-06T21:28:43.148Z,67.10
2022-09-06T21:31:15.093Z,65.90
2022-09-06T21:33:44.313Z,66.10
2022-09-06T21:36:13.659Z,66.20
2022-09-06T21:38:43.130Z,66.00
2022-09-06T21:41:11.632Z,66.20
2022-09-06T21:43:39.118Z,66.20
2022-09-06T21:46:12.137Z,66.30
2022-09-06T21:48:40.847Z,66.40
2022-09-06T21:51:08.914Z,66.30
2022-09-06T21:53:36.507Z,66.60
2022-09-06T21:56:05.154Z,66.40
2022-09-06T21:58:32.660Z,66.70
2022-09-06T22:01:00.675Z,66.60
2022-09-06T22:03:28.666Z,66.30
2022-09-06T22:05:55.578Z,66.30
2022-09-06T22:08:22.851Z,66.50
2022-09-06T22:10:50.178Z,68.20
2022-09-06T22:13:18.722Z,69.00
2022-09-06T22:15:45.866Z,70.30
2022-09-06T22:18:13.642Z,70.20
2022-09-06T22:20:40.290Z,71.70
2022-09-06T22:23:08.260Z,74.20
2022-09-06T22:25:35.156Z,73.80
2022-09-06T22:28:02.079Z,73.00
2022-09-06T22:30:28.784Z,70.80
2022-09-06T22:32:55.919Z,75.40
2022-09-06T22:35:22.521Z,80.50
2022-09-06T22:37:49.348Z,82.60
2022-09-06T22:40:16.126Z,80.40
2022-09-06T22:42:43.346Z,83.20
2022-09-06T22:45:10.257Z,83.20
2022-09-06T22:47:37.040Z,82.40
2022-09-06T22:50:03.902Z,86.10
2022-09-06T22:52:30.568Z,86.30
2022-09-06T22:54:57.137Z,88.60
2022-09-06T22:57:23.833Z,88.20
2022-09-06T22:59:50.514Z,88.20
2022-09-06T23:02:17.119Z,90.00
2022-09-06T23:04:44.161Z,89.30
2022-09-06T23:07:10.888Z,87.80
2022-09-06T23:09:37.636Z,90.40
2022-09-06T23:12:05.094Z,88.50
2022-09-06T23:14:31.772Z,88.10
2022-09-06T23:16:58.680Z,89.60
2022-09-06T23:19:25.319Z,90.40
2022-09-06T23:21:51.925Z,90.60
2022-09-06T23:24:18.735Z,88.30
2022-09-06T23:26:45.322Z,90.30
2022-09-06T23:29:12.767Z,90.60
2022-09-06T23:31:39.890Z,90.70
2022-09-06T23:34:06.694Z,91.10
2022-09-06T23:36:33.485Z,91.10
2022-09-06T23:39:01.836Z,91.10
2022-09-06T23:41:28.743Z,90.50
2022-09-06T23:43:55.423Z,90.00
2022-09-06T23:46:22.242Z,90.60
2022-09-06T23:48:48.910Z,90.50
2022-09-06T23:51:15.641Z,91.10
2022-09-06T23:53:42.618Z,91.20
2022-09-06T23:56:10.077Z,91.30
2022-09-06T23:58:37.415Z,91.40
